Time;durP1;ratioP1;P1;durP2;ratioP2;P2;SDS_P1;SDS_P2;PMS_P1;PMS_P2;Temp;Humidity;BMP_temperature;BMP_pressure;BME280_temperature;BME280_humidity;BME280_pressure;Samples;Min_cycle;Max_cycle;Signal;HPM_P1;HPM_P2
2024/01/30 00:01:49;;;;;;;0.30;0.30;;;1.30;99.90;;;;;;5110419;28;20180;-77
2024/01/30 00:04:16;;;;;;;0.30;0.30;;;1.20;99.90;;;;;;5110030;28;20376;-77
2024/01/30 00:06:42;;;;;;;0.30;0.30;;;1.20;99.90;;;;;;5109883;28;20247;-82
2024/01/30 00:09:08;;;;;;;0.30;0.30;;;1.20;99.90;;;;;;5111120;28;20231;-78
2024/01/30 00:11:34;;;;;;;0.30;0.30;;;1.10;99.90;;;;;;5109913;28;20416;-82
2024/01/30 00:14:00;;;;;;;0.30;0.30;;;1.10;99.90;;;;;;5111075;28;20203;-78
2024/01/30 00:16:26;;;;;;;0.30;0.30;;;1.00;99.90;;;;;;5109742;28;20187;-82
2024/01/30 00:18:53;;;;;;;0.30;0.30;;;1.00;99.90;;;;;;5110021;28;20406;-82
2024/01/30 00:21:20;;;;;;;0.30;0.25;;;1.00;99.90;;;;;;5109633;28;20240;-82
2024/01/30 00:23:45;;;;;;;0.30;0.30;;;0.90;99.90;;;;;;5111470;27;20696;-77
2024/01/30 00:26:11;;;;;;;0.30;0.30;;;0.90;99.90;;;;;;5110986;28;20312;-81
2024/01/30 00:28:41;;;;;;;0.30;0.30;;;0.90;99.90;;;;;;5109753;28;20564;-82
2024/01/30 00:31:07;;;;;;;0.30;0.30;;;0.80;99.90;;;;;;5110746;28;20584;-82
2024/01/30 00:33:33;;;;;;;28.10;12.30;;;0.80;99.90;;;;;;5109555;28;20333;-77
2024/01/30 00:35:59;;;;;;;0.30;0.30;;;0.80;99.90;;;;;;5108616;28;20624;-77
2024/01/30 00:38:25;;;;;;;0.30;0.30;;;0.80;99.90;;;;;;5111369;28;20866;-81
2024/01/30 00:40:50;;;;;;;0.30;0.30;;;0.80;99.90;;;;;;5110809;28;20596;-78
2024/01/30 00:43:16;;;;;;;0.30;0.30;;;0.80;99.90;;;;;;5110465;28;20390;-82
2024/01/30 00:45:43;;;;;;;0.30;0.30;;;0.80;99.90;;;;;;5108986;28;20180;-77
2024/01/30 00:48:09;;;;;;;0.30;0.30;;;0.80;99.90;;;;;;5109261;28;20502;-78
2024/01/30 00:50:35;;;;;;;0.40;0.37;;;0.70;99.90;;;;;;5110430;28;20247;-78
2024/01/30 00:53:01;;;;;;;0.30;0.30;;;0.70;99.90;;;;;;5109869;28;20680;-78
2024/01/30 00:55:26;;;;;;;0.30;0.30;;;0.70;99.90;;;;;;5110310;28;20195;-77
2024/01/30 00:57:52;;;;;;;0.30;0.30;;;0.70;99.90;;;;;;5109135;28;20402;-78
2024/01/30 01:00:18;;;;;;;0.30;0.30;;;0.70;99.90;;;;;;5110339;28;20255;-78
2024/01/30 01:02:44;;;;;;;0.30;0.30;;;0.70;99.90;;;;;;5110825;28;20724;-77
2024/01/30 01:05:10;;;;;;;0.30;0.30;;;0.70;99.90;;;;;;5108883;28;20230;-81
2024/01/30 01:07:36;;;;;;;0.30;0.30;;;0.70;99.90;;;;;;5110257;28;20238;-78
2024/01/30 01:10:02;;;;;;;0.30;0.30;;;0.60;99.90;;;;;;5108709;28;20184;-78
2024/01/30 01:12:28;;;;;;;0.30;0.30;;;0.60;99.90;;;;;;5109833;28;20176;-78
2024/01/30 01:14:54;;;;;;;0.30;0.30;;;0.60;99.90;;;;;;5108673;28;20557;-78
2024/01/30 01:17:19;;;;;;;0.30;0.30;;;0.50;99.90;;;;;;5109140;28;20183;-82
2024/01/30 01:19:45;;;;;;;0.30;0.30;;;0.50;99.90;;;;;;5110034;28;20316;-78
2024/01/30 01:22:11;;;;;;;0.30;0.30;;;0.50;99.90;;;;;;5109008;28;20252;-82
2024/01/30 01:24:37;;;;;;;0.30;0.30;;;0.50;99.90;;;;;;5110107;28;20195;-82
2024/01/30 01:27:03;;;;;;;0.30;0.30;;;0.50;99.90;;;;;;5110341;28;20390;-78
2024/01/30 01:29:29;;;;;;;0.30;0.30;;;0.50;99.90;;;;;;5108597;28;20528;-79
2024/01/30 01:31:55;;;;;;;0.30;0.30;;;0.50;99.90;;;;;;5109818;28;20171;-82
2024/01/30 01:34:23;;;;;;;0.30;0.30;;;0.50;99.90;;;;;;5109768;28;20239;-82
2024/01/30 01:36:49;;;;;;;0.30;0.30;;;0.50;99.90;;;;;;5108033;28;20183;-81
2024/01/30 01:39:15;;;;;;;0.30;0.30;;;0.50;99.90;;;;;;5109872;28;20268;-78
2024/01/30 01:41:41;;;;;;;0.30;0.30;;;0.50;99.90;;;;;;5108546;28;20190;-78
2024/01/30 01:44:07;;;;;;;0.30;0.30;;;0.40;99.90;;;;;;5108193;28;20691;-82
2024/01/30 01:46:34;;;;;;;0.30;0.30;;;0.40;99.90;;;;;;5108764;28;20176;-82
2024/01/30 01:49:05;;;;;;;0.30;0.30;;;0.40;99.90;;;;;;5109019;28;20298;-82
2024/01/30 01:51:33;;;;;;;0.30;0.30;;;0.40;99.90;;;;;;5109752;28;20255;-81
2024/01/30 01:54:03;;;;;;;0.30;0.30;;;0.30;99.90;;;;;;5108062;28;20203;-82
2024/01/30 01:56:30;;;;;;;0.30;0.30;;;0.30;99.90;;;;;;5110114;28;20172;-78
2024/01/30 01:59:00;;;;;;;0.30;0.30;;;0.30;99.90;;;;;;5108434;28;20302;-82
2024/01/30 02:01:27;;;;;;;0.30;0.30;;;0.30;99.90;;;;;;5109775;28;20183;-82
2024/01/30 02:03:53;;;;;;;0.30;0.30;;;0.30;99.90;;;;;;5108393;28;20285;-82
2024/01/30 02:06:19;;;;;;;0.30;0.30;;;0.20;99.90;;;;;;5109698;28;20219;-81
2024/01/30 02:08:45;;;;;;;0.30;0.30;;;0.20;99.90;;;;;;5110048;28;20656;-81
2024/01/30 02:11:11;;;;;;;0.30;0.30;;;0.20;99.90;;;;;;5109681;28;20199;-82
2024/01/30 02:13:37;;;;;;;0.30;0.30;;;0.10;99.90;;;;;;5108625;28;20672;-82
2024/01/30 02:16:03;;;;;;;0.30;0.30;;;0.10;99.90;;;;;;5108156;28;20190;-82
2024/01/30 02:18:29;;;;;;;0.30;0.30;;;0.10;99.90;;;;;;5108223;28;20442;-78
2024/01/30 02:21:01;;;;;;;0.30;0.30;;;0.10;99.90;;;;;;5109355;28;20454;-80
2024/01/30 02:23:27;;;;;;;0.30;0.30;;;0.10;99.90;;;;;;5109708;28;20430;-77
2024/01/30 02:25:53;;;;;;;0.30;0.30;;;0.00;99.90;;;;;;5107975;28;20458;-82
2024/01/30 02:28:20;;;;;;;0.30;0.30;;;0.00;99.90;;;;;;5108386;28;20413;-78
2024/01/30 02:30:46;;;;;;;0.30;0.30;;;0.00;99.90;;;;;;5109811;28;20203;-78
2024/01/30 02:33:13;;;;;;;0.30;0.30;;;0.00;99.90;;;;;;5109788;28;20284;-78
2024/01/30 02:35:38;;;;;;;0.30;0.30;;;0.00;99.90;;;;;;5109285;28;20211;-78
2024/01/30 02:38:04;;;;;;;0.30;0.30;;;0.00;99.90;;;;;;5108376;28;20597;-81
2024/01/30 02:40:30;;;;;;;0.30;0.30;;;-0.10;99.90;;;;;;5107924;28;20451;-78
2024/01/30 02:42:57;;;;;;;0.30;0.30;;;0.00;99.90;;;;;;5107719;28;20286;-77
2024/01/30 02:45:23;;;;;;;0.30;0.30;;;0.00;99.90;;;;;;5111318;28;20404;-82
2024/01/30 02:47:48;;;;;;;0.30;0.30;;;0.00;99.90;;;;;;5111716;28;20199;-82
2024/01/30 02:50:15;;;;;;;0.50;0.50;;;0.00;99.90;;;;;;5111301;28;20220;-82
2024/01/30 02:52:41;;;;;;;0.30;0.30;;;0.00;99.90;;;;;;5112848;28;20188;-82
2024/01/30 02:55:07;;;;;;;0.30;0.30;;;0.00;99.90;;;;;;5112321;28;20693;-79
2024/01/30 02:57:32;;;;;;;0.30;0.30;;;0.00;99.90;;;;;;5111540;28;20232;-77
2024/01/30 02:59:58;;;;;;;0.30;0.30;;;0.10;99.90;;;;;;5112398;28;20199;-78
2024/01/30 03:02:24;;;;;;;0.30;0.30;;;0.10;99.90;;;;;;5112787;28;20172;-82
2024/01/30 03:04:49;;;;;;;0.30;0.30;;;0.00;99.90;;;;;;5112623;28;20481;-82
2024/01/30 03:07:15;;;;;;;0.30;0.30;;;0.00;99.90;;;;;;5111486;28;20718;-77
2024/01/30 03:09:44;;;;;;;0.30;0.30;;;0.00;99.90;;;;;;5110548;28;20244;-79
2024/01/30 03:12:10;;;;;;;0.30;0.30;;;0.10;99.90;;;;;;5112796;28;20530;-82
2024/01/30 03:14:36;;;;;;;0.33;0.30;;;0.10;99.90;;;;;;5112226;28;20196;-83
2024/01/30 03:17:02;;;;;;;0.30;0.30;;;0.10;99.90;;;;;;5111407;28;20401;-82
2024/01/30 03:19:28;;;;;;;0.30;0.30;;;0.00;99.90;;;;;;5112198;28;20211;-83
2024/01/30 03:21:54;;;;;;;0.30;0.30;;;0.00;99.90;;;;;;5111155;28;20621;-82
2024/01/30 03:24:19;;;;;;;0.30;0.30;;;-0.10;99.90;;;;;;5112004;28;20206;-78
2024/01/30 03:26:45;;;;;;;0.30;0.30;;;-0.10;99.90;;;;;;5110971;28;20403;-79
2024/01/30 03:29:11;;;;;;;0.30;0.30;;;-0.10;99.90;;;;;;5112082;28;20435;-82
2024/01/30 03:31:36;;;;;;;1.90;1.83;;;-0.10;99.90;;;;;;5112316;28;20582;-78
2024/01/30 03:34:02;;;;;;;0.30;0.30;;;-0.20;99.90;;;;;;5110607;28;20200;-82
2024/01/30 03:36:28;;;;;;;0.30;0.30;;;-0.20;99.90;;;;;;5112247;28;20271;-79
2024/01/30 03:38:54;;;;;;;0.30;0.30;;;-0.20;99.90;;;;;;5111899;28;20803;-82
2024/01/30 03:41:19;;;;;;;0.30;0.30;;;-0.30;99.90;;;;;;5110873;28;20416;-83
2024/01/30 03:43:47;;;;;;;0.30;0.30;;;-0.40;99.90;;;;;;5111479;28;20227;-82
2024/01/30 03:46:13;;;;;;;0.30;0.30;;;-0.50;99.90;;;;;;5110257;28;20190;-82
2024/01/30 03:48:39;;;;;;;0.30;0.30;;;-0.50;99.90;;;;;;5112024;27;20676;-82
2024/01/30 03:51:05;;;;;;;0.30;0.30;;;-0.70;99.90;;;;;;5111444;28;20776;-82
2024/01/30 03:53:30;;;;;;;0.30;0.30;;;-0.80;99.90;;;;;;5109995;28;20223;-83
2024/01/30 03:55:56;;;;;;;0.30;0.30;;;-0.90;99.90;;;;;;5110789;28;20425;-81
2024/01/30 03:58:22;;;;;;;0.30;0.30;;;-1.00;99.90;;;;;;5111787;28;20442;-78
2024/01/30 04:00:48;;;;;;;0.30;0.30;;;-1.10;99.90;;;;;;5111395;28;20679;-78
2024/01/30 04:03:16;;;;;;;0.30;0.30;;;-1.10;99.90;;;;;;5111670;28;20479;-79
2024/01/30 04:05:42;;;;;;;0.30;0.30;;;-1.20;99.90;;;;;;5109262;28;20406;-78
2024/01/30 04:08:08;;;;;;;0.30;0.30;;;-1.20;99.90;;;;;;5110344;28;20202;-83
2024/01/30 04:10:34;;;;;;;0.30;0.30;;;-1.20;99.90;;;;;;5110828;28;20976;-82
2024/01/30 04:13:00;;;;;;;0.30;0.30;;;-1.30;99.90;;;;;;5109717;28;20419;-78
2024/01/30 04:15:26;;;;;;;0.30;0.30;;;-1.30;99.90;;;;;;5111062;28;20583;-82
2024/01/30 04:17:52;;;;;;;0.30;0.30;;;-1.30;99.90;;;;;;5111192;28;20486;-82
2024/01/30 04:20:18;;;;;;;0.30;0.30;;;-1.30;99.90;;;;;;5111279;28;20259;-77
2024/01/30 04:22:44;;;;;;;0.30;0.30;;;-1.20;99.90;;;;;;5109704;28;20194;-78
2024/01/30 04:25:11;;;;;;;0.30;0.30;;;-1.10;99.90;;;;;;5110915;28;20397;-78
2024/01/30 04:27:37;;;;;;;0.30;0.30;;;-1.00;99.90;;;;;;5109697;28;20180;-78
2024/01/30 04:30:03;;;;;;;0.30;0.30;;;-0.90;99.90;;;;;;5110758;28;20179;-78
2024/01/30 04:32:29;;;;;;;0.30;0.30;;;-0.80;99.90;;;;;;5111050;28;20528;-81
2024/01/30 04:34:55;;;;;;;0.30;0.30;;;-0.70;99.90;;;;;;5110792;28;20250;-81
2024/01/30 04:37:20;;;;;;;0.30;0.30;;;-0.70;99.90;;;;;;5110023;28;20502;-77
2024/01/30 04:39:46;;;;;;;0.30;0.30;;;-0.60;99.90;;;;;;5109030;28;20298;-83
2024/01/30 04:42:12;;;;;;;0.30;0.30;;;-0.60;99.90;;;;;;5109136;28;20225;-82
2024/01/30 04:44:37;;;;;;;0.30;0.30;;;-0.50;99.90;;;;;;5108267;28;20205;-82
2024/01/30 04:47:05;;;;;;;0.30;0.30;;;-0.50;99.90;;;;;;5110454;28;20168;-77
2024/01/30 04:49:32;;;;;;;0.30;0.30;;;-0.50;99.90;;;;;;5109069;28;20412;-78
2024/01/30 04:51:58;;;;;;;0.30;0.30;;;-0.40;99.90;;;;;;5110760;28;20191;-78
2024/01/30 04:54:24;;;;;;;0.30;0.30;;;-0.40;99.90;;;;;;5108380;28;20211;-82
2024/01/30 04:56:49;;;;;;;0.30;0.30;;;-0.50;99.90;;;;;;5109135;28;20559;-81
2024/01/30 04:59:15;;;;;;;0.30;0.30;;;-0.50;99.90;;;;;;5108788;28;20226;-77
2024/01/30 05:01:41;;;;;;;0.30;0.30;;;-0.60;99.90;;;;;;5108795;28;20232;-82
2024/01/30 05:04:11;;;;;;;0.30;0.30;;;-0.60;99.90;;;;;;5109784;28;20462;-77
2024/01/30 05:06:36;;;;;;;0.30;0.30;;;-0.60;99.90;;;;;;5109171;28;20476;-82
2024/01/30 05:09:04;;;;;;;0.30;0.30;;;-0.60;99.90;;;;;;5107650;28;20229;-78
2024/01/30 05:11:30;;;;;;;0.30;0.30;;;-0.70;99.90;;;;;;5109227;28;20184;-81
2024/01/30 05:13:55;;;;;;;0.30;0.30;;;-0.70;99.90;;;;;;5108703;28;20570;-78
2024/01/30 05:16:21;;;;;;;0.30;0.30;;;-0.80;99.90;;;;;;5109671;28;20409;-83
2024/01/30 05:18:47;;;;;;;0.30;0.30;;;-0.80;99.90;;;;;;5110148;28;20215;-78
2024/01/30 05:21:13;;;;;;;0.30;0.30;;;-0.70;99.90;;;;;;5109295;28;20237;-82
2024/01/30 05:23:38;;;;;;;0.30;0.30;;;-0.70;99.90;;;;;;5109907;28;20606;-78
2024/01/30 05:26:04;;;;;;;0.30;0.30;;;-0.60;99.90;;;;;;5107903;28;20446;-78
2024/01/30 05:28:30;;;;;;;0.30;0.30;;;-0.70;99.90;;;;;;5108269;28;20611;-78
2024/01/30 05:30:56;;;;;;;0.67;0.67;;;-0.80;99.90;;;;;;5109230;28;20649;-82
2024/01/30 05:33:22;;;;;;;0.30;0.30;;;-0.80;99.90;;;;;;5109761;28;20507;-82
2024/01/30 05:35:48;;;;;;;0.30;0.30;;;-0.90;99.90;;;;;;5108653;28;20599;-78
2024/01/30 05:38:15;;;;;;;0.30;0.30;;;-0.90;99.90;;;;;;5108333;28;20428;-82
2024/01/30 05:40:41;;;;;;;0.30;0.30;;;-0.90;99.90;;;;;;5108550;28;20174;-78
2024/01/30 05:43:07;;;;;;;0.30;0.30;;;-0.90;99.90;;;;;;5109370;28;20204;-78
2024/01/30 05:45:35;;;;;;;0.30;0.30;;;-1.00;99.90;;;;;;5109038;28;20294;-78
2024/01/30 05:48:00;;;;;;;0.30;0.30;;;-0.90;99.90;;;;;;5107122;28;20234;-83
2024/01/30 05:50:26;;;;;;;0.30;0.30;;;-0.90;99.90;;;;;;5106857;28;20184;-82
2024/01/30 05:52:53;;;;;;;0.30;0.30;;;-0.90;99.90;;;;;;5106155;28;20977;-82
2024/01/30 05:55:18;;;;;;;0.30;0.30;;;-0.90;99.90;;;;;;5107781;28;20666;-78
2024/01/30 05:57:44;;;;;;;0.30;0.30;;;-0.90;99.90;;;;;;5108942;28;20195;-78
2024/01/30 06:00:10;;;;;;;0.30;0.30;;;-0.90;99.90;;;;;;5106860;28;20575;-81
2024/01/30 06:02:36;;;;;;;0.40;0.40;;;-0.90;99.90;;;;;;5123002;28;20664;-80
2024/01/30 06:05:02;;;;;;;0.30;0.30;;;-0.90;99.90;;;;;;5109251;28;20404;-83
2024/01/30 06:07:28;;;;;;;0.30;0.30;;;-0.80;99.90;;;;;;5108384;28;20216;-80
2024/01/30 06:09:54;;;;;;;0.30;0.30;;;-0.80;99.90;;;;;;5120294;28;20184;-81
2024/01/30 06:12:19;;;;;;;0.30;0.30;;;-0.80;99.90;;;;;;5105204;28;20182;-78
2024/01/30 06:14:45;;;;;;;0.30;0.27;;;-0.90;99.90;;;;;;5108064;28;20192;-82
2024/01/30 06:17:11;;;;;;;0.30;0.30;;;-0.80;99.90;;;;;;5112861;28;20195;-82
2024/01/30 06:19:41;;;;;;;0.30;0.30;;;-0.80;99.90;;;;;;5106428;28;20235;-77
2024/01/30 06:22:07;;;;;;;0.30;0.30;;;-0.80;99.90;;;;;;5112952;28;20175;-83
2024/01/30 06:24:34;;;;;;;0.30;0.30;;;-0.80;99.90;;;;;;5128950;27;20188;-82
2024/01/30 06:27:00;;;;;;;0.30;0.30;;;-0.70;99.90;;;;;;5128652;27;20494;-78
2024/01/30 06:29:26;;;;;;;0.30;0.30;;;-0.70;99.90;;;;;;5112177;28;20279;-82
2024/01/30 06:31:52;;;;;;;0.30;0.20;;;-0.70;99.90;;;;;;5127603;27;20473;-82
2024/01/30 06:34:18;;;;;;;0.30;0.30;;;-0.70;99.90;;;;;;5099708;28;20796;-78
2024/01/30 06:36:44;;;;;;;0.30;0.30;;;-0.70;99.90;;;;;;5092568;28;20180;-79
2024/01/30 06:39:10;;;;;;;0.30;0.30;;;-0.70;99.90;;;;;;5106066;28;20216;-83
2024/01/30 06:41:35;;;;;;;0.30;0.30;;;-0.70;99.90;;;;;;5103188;28;20253;-77
2024/01/30 06:44:06;;;;;;;0.30;0.30;;;-0.70;99.90;;;;;;5118745;27;20489;-83
2024/01/30 06:46:32;;;;;;;0.30;0.30;;;-0.70;99.90;;;;;;5122498;27;20640;-78
2024/01/30 06:48:58;;;;;;;0.30;0.20;;;-0.60;99.90;;;;;;5103124;28;20211;-83
2024/01/30 06:51:25;;;;;;;0.30;0.30;;;-0.70;99.90;;;;;;5106701;28;20267;-78
2024/01/30 06:53:50;;;;;;;0.30;0.30;;;-0.70;99.90;;;;;;5120931;27;20475;-79
2024/01/30 06:56:20;;;;;;;0.30;0.30;;;-0.70;99.90;;;;;;5104670;28;20244;-78
2024/01/30 06:58:47;;;;;;;0.30;0.30;;;-0.60;99.90;;;;;;5106578;28;20231;-82
2024/01/30 07:01:13;;;;;;;0.30;0.30;;;-0.50;99.90;;;;;;5105033;28;20270;-84
2024/01/30 07:03:38;;;;;;;0.30;0.30;;;-0.50;99.90;;;;;;5099631;28;20299;-79
2024/01/30 07:06:04;;;;;;;0.30;0.30;;;-0.40;99.90;;;;;;5092574;28;20215;-78
2024/01/30 07:08:30;;;;;;;0.30;0.30;;;-0.40;99.90;;;;;;5097433;28;20740;-77
2024/01/30 07:10:56;;;;;;;0.30;0.30;;;-0.30;99.90;;;;;;5099201;28;20414;-78
2024/01/30 07:13:21;;;;;;;0.30;0.30;;;-0.30;99.90;;;;;;5096845;28;20218;-83
2024/01/30 07:15:47;;;;;;;0.30;0.30;;;-0.30;99.90;;;;;;5094476;28;20183;-78
2024/01/30 07:18:16;;;;;;;0.30;0.30;;;-0.30;99.90;;;;;;5100476;28;20410;-82
2024/01/30 07:20:45;;;;;;;0.30;0.30;;;-0.30;99.90;;;;;;5099596;28;20657;-82
2024/01/30 07:23:13;;;;;;;0.30;0.30;;;-0.20;99.90;;;;;;5123585;27;20337;-82
2024/01/30 07:25:41;;;;;;;0.30;0.30;;;-0.20;99.90;;;;;;5108179;28;20168;-77
2024/01/30 07:28:12;;;;;;;0.30;0.30;;;-0.20;99.90;;;;;;5122435;27;20450;-82
2024/01/30 07:30:38;;;;;;;0.30;0.30;;;-0.20;99.90;;;;;;5117780;27;20191;-78
2024/01/30 07:33:04;;;;;;;0.30;0.30;;;-0.10;99.90;;;;;;5108450;27;20199;-82
2024/01/30 07:35:30;;;;;;;0.30;0.30;;;0.00;99.90;;;;;;5116850;27;20304;-82
2024/01/30 07:37:56;;;;;;;0.30;0.30;;;0.00;99.90;;;;;;5102880;28;20968;-83
2024/01/30 07:40:22;;;;;;;0.30;0.30;;;0.10;99.90;;;;;;5104619;28;20207;-82
2024/01/30 07:42:48;;;;;;;0.30;0.30;;;0.20;99.90;;;;;;5103208;28;20656;-83
2024/01/30 07:45:14;;;;;;;0.30;0.20;;;0.30;99.90;;;;;;5102244;28;20404;-82
2024/01/30 07:47:40;;;;;;;0.30;0.30;;;0.40;99.90;;;;;;5089666;28;20564;-82
2024/01/30 07:50:06;;;;;;;0.30;0.30;;;0.50;99.90;;;;;;5102069;28;20172;-78
2024/01/30 07:52:32;;;;;;;0.30;0.30;;;0.60;99.90;;;;;;5107072;28;20533;-81
2024/01/30 07:54:57;;;;;;;0.30;0.30;;;0.70;99.90;;;;;;5104246;28;20176;-83
2024/01/30 07:57:23;;;;;;;0.30;0.30;;;0.80;99.90;;;;;;5103825;28;20677;-78
2024/01/30 07:59:51;;;;;;;0.30;0.30;;;0.90;99.90;;;;;;5104311;28;20435;-79
2024/01/30 08:02:17;;;;;;;0.30;0.30;;;1.00;99.90;;;;;;5103202;28;20528;-78
2024/01/30 08:04:43;;;;;;;1.07;1.07;;;1.20;99.90;;;;;;5107431;28;20211;-78
2024/01/30 08:07:09;;;;;;;0.30;0.30;;;1.20;99.90;;;;;;5102662;28;20228;-83
2024/01/30 08:09:35;;;;;;;0.30;0.30;;;1.40;99.90;;;;;;5096760;28;20207;-82
2024/01/30 08:12:01;;;;;;;0.30;0.30;;;1.50;99.90;;;;;;5102867;28;20516;-83
2024/01/30 08:14:27;;;;;;;0.30;0.30;;;1.60;99.90;;;;;;5095503;28;20445;-83
2024/01/30 08:16:53;;;;;;;0.30;0.30;;;1.80;99.90;;;;;;5103212;28;20339;-83
2024/01/30 08:19:19;;;;;;;0.30;0.30;;;2.00;99.90;;;;;;5100101;28;20231;-83
2024/01/30 08:21:44;;;;;;;0.30;0.30;;;2.10;99.90;;;;;;5098905;28;20172;-83
2024/01/30 08:24:10;;;;;;;0.30;0.30;;;2.10;99.90;;;;;;5096377;28;20204;-83
2024/01/30 08:26:36;;;;;;;0.30;0.30;;;2.20;99.90;;;;;;5093784;28;20181;-79
2024/01/30 08:29:02;;;;;;;0.30;0.30;;;2.30;99.90;;;;;;5097949;28;20271;-82
2024/01/30 08:31:28;;;;;;;0.30;0.30;;;2.60;99.90;;;;;;5104103;28;20186;-82
2024/01/30 08:33:54;;;;;;;0.30;0.30;;;3.30;99.90;;;;;;5101331;28;20587;-78
2024/01/30 08:36:20;;;;;;;0.30;0.30;;;4.00;99.90;;;;;;5124399;27;20180;-79
2024/01/30 08:38:45;;;;;;;0.30;0.30;;;5.00;99.90;;;;;;5102603;28;20708;-83
2024/01/30 08:41:11;;;;;;;1.77;1.67;;;6.00;99.90;;;;;;5099068;28;20304;-78
2024/01/30 08:43:37;;;;;;;0.53;0.50;;;7.00;99.90;;;;;;5101777;28;20210;-79
2024/01/30 08:46:03;;;;;;;0.97;0.97;;;8.00;99.90;;;;;;5094931;28;20188;-83
2024/01/30 08:48:29;;;;;;;0.65;0.65;;;8.90;99.90;;;;;;5094349;28;20203;-79
2024/01/30 08:50:54;;;;;;;0.40;0.30;;;9.50;99.90;;;;;;5094128;28;20618;-78
2024/01/30 08:53:20;;;;;;;0.30;0.30;;;10.20;99.90;;;;;;5095725;28;20204;-79
2024/01/30 08:55:46;;;;;;;0.37;0.30;;;10.70;99.90;;;;;;5096338;28;20229;-80
2024/01/30 08:58:12;;;;;;;0.40;0.40;;;11.30;99.90;;;;;;5113992;27;20941;-78
2024/01/30 09:00:37;;;;;;;0.80;0.80;;;11.80;99.90;;;;;;5101605;28;20196;-83
2024/01/30 09:03:04;;;;;;;0.40;0.30;;;12.20;99.90;;;;;;5104957;28;20467;-83
2024/01/30 09:05:29;;;;;;;2.55;2.45;;;12.70;99.90;;;;;;5098493;28;20183;-79
2024/01/30 09:07:55;;;;;;;0.40;0.40;;;13.20;99.90;;;;;;5100914;28;20299;-80
2024/01/30 09:10:22;;;;;;;0.40;0.40;;;13.70;99.90;;;;;;5092352;28;20255;-80
2024/01/30 09:12:49;;;;;;;1.90;1.80;;;14.10;99.90;;;;;;5103602;28;20552;-80
2024/01/30 09:15:14;;;;;;;1.60;1.50;;;14.50;99.90;;;;;;5101724;28;20192;-84
2024/01/30 09:17:40;;;;;;;0.40;0.30;;;15.00;99.60;;;;;;5099059;28;21019;-79
2024/01/30 09:20:06;;;;;;;2.93;2.83;;;15.30;98.10;;;;;;5099150;28;20345;-80
2024/01/30 09:22:32;;;;;;;8.67;2.40;;;15.60;97.30;;;;;;5095789;28;20188;-79
2024/01/30 09:24:58;;;;;;;3.93;3.60;;;16.00;96.20;;;;;;5105850;28;20888;-83
2024/01/30 09:27:24;;;;;;;1.60;1.03;;;16.20;95.40;;;;;;5102204;28;20176;-83
2024/01/30 09:29:50;;;;;;;0.47;0.47;;;16.40;94.60;;;;;;5104867;28;20416;-83
2024/01/30 09:32:16;;;;;;;13.20;12.10;;;16.40;94.00;;;;;;5104375;28;20431;-81
2024/01/30 09:34:41;;;;;;;0.60;0.60;;;16.40;94.40;;;;;;5100259;28;20212;-80
2024/01/30 09:37:07;;;;;;;0.60;0.60;;;16.40;93.60;;;;;;5101865;28;20547;-79
2024/01/30 09:39:33;;;;;;;3.83;3.63;;;16.30;92.90;;;;;;5108529;28;20220;-83
2024/01/30 09:42:21;;;;;;;0.60;0.60;;;15.80;93.10;;;;;;5098563;28;20469;-82
2024/01/30 09:44:49;;;;;;;0.93;0.93;;;15.20;93.10;;;;;;5102903;28;20411;-78
2024/01/30 09:47:17;;;;;;;0.70;0.70;;;14.80;93.40;;;;;;5100609;28;20517;-82
2024/01/30 09:49:44;;;;;;;0.77;0.77;;;14.30;93.60;;;;;;5086168;28;20421;-82
2024/01/30 09:52:11;;;;;;;0.40;0.30;;;13.80;94.40;;;;;;5098511;28;21035;-78
2024/01/30 09:54:38;;;;;;;0.40;0.20;;;13.20;94.70;;;;;;5124747;27;20827;-78
2024/01/30 09:57:05;;;;;;;0.30;0.20;;;12.50;95.20;;;;;;5096657;28;20436;-82
2024/01/30 09:59:31;;;;;;;0.40;0.30;;;11.70;96.40;;;;;;5103898;28;20984;-78
2024/01/30 10:01:58;;;;;;;0.40;0.40;;;11.40;97.00;;;;;;5106598;28;20558;-78
2024/01/30 10:04:24;;;;;;;0.40;0.30;;;11.40;97.70;;;;;;5100891;28;20712;-82
2024/01/30 10:06:51;;;;;;;0.30;0.20;;;11.50;97.30;;;;;;5104138;28;20558;-82
2024/01/30 10:09:16;;;;;;;0.40;0.30;;;11.40;97.60;;;;;;5108631;28;20459;-82
2024/01/30 10:11:42;;;;;;;0.60;0.60;;;11.10;98.50;;;;;;5109153;28;20798;-77
2024/01/30 10:14:08;;;;;;;5.80;4.37;;;10.90;98.60;;;;;;5099059;28;20230;-82
2024/01/30 10:16:37;;;;;;;2.10;2.00;;;10.80;98.80;;;;;;5108254;28;20175;-82
2024/01/30 10:19:02;;;;;;;1.10;1.10;;;10.60;99.30;;;;;;5108485;28;20471;-83
2024/01/30 10:21:30;;;;;;;0.30;0.20;;;10.60;99.90;;;;;;5107722;27;20180;-77
2024/01/30 10:23:55;;;;;;;0.40;0.30;;;10.60;99.90;;;;;;5108297;28;20188;-82
2024/01/30 10:26:22;;;;;;;0.30;0.30;;;10.40;99.90;;;;;;5105875;28;20187;-82
2024/01/30 10:28:49;;;;;;;0.30;0.20;;;10.20;99.90;;;;;;5129261;27;20445;-77
2024/01/30 10:31:18;;;;;;;0.50;0.50;;;9.90;99.90;;;;;;5109412;28;20709;-82
2024/01/30 10:33:45;;;;;;;0.95;0.95;;;9.70;99.90;;;;;;5107708;28;20240;-78
2024/01/30 10:36:17;;;;;;;0.65;0.65;;;9.50;99.90;;;;;;5104566;28;20282;-82
2024/01/30 10:38:46;;;;;;;0.30;0.20;;;9.30;99.90;;;;;;5106916;28;20211;-77
2024/01/30 10:41:15;;;;;;;0.95;0.95;;;9.10;99.90;;;;;;5103266;28;20182;-83
2024/01/30 10:43:45;;;;;;;0.30;0.20;;;8.90;99.90;;;;;;5092993;28;20204;-78
2024/01/30 10:46:19;;;;;;;0.40;0.40;;;8.70;99.90;;;;;;5101483;28;20168;-78
2024/01/30 10:48:50;;;;;;;2.70;2.65;;;8.60;99.90;;;;;;5106295;28;20204;-83
2024/01/30 10:51:18;;;;;;;0.30;0.20;;;8.40;99.90;;;;;;5101205;28;20462;-78
2024/01/30 10:53:46;;;;;;;0.30;0.20;;;8.40;99.90;;;;;;5118203;27;20233;-78
2024/01/30 10:56:13;;;;;;;0.30;0.30;;;8.40;99.90;;;;;;5090172;28;20209;-78
2024/01/30 10:58:39;;;;;;;0.30;0.20;;;8.30;99.90;;;;;;5105800;28;20680;-82
2024/01/30 11:01:07;;;;;;;0.40;0.20;;;8.30;99.90;;;;;;5105337;28;20176;-77
2024/01/30 11:03:36;;;;;;;1.13;1.10;;;8.30;99.90;;;;;;5117478;27;20230;-83
2024/01/30 11:06:03;;;;;;;1.70;1.65;;;8.40;99.90;;;;;;5101516;28;20764;-82
2024/01/30 11:08:31;;;;;;;0.30;0.20;;;8.50;99.90;;;;;;5104917;28;20195;-82
2024/01/30 11:10:58;;;;;;;0.40;0.30;;;8.40;99.90;;;;;;5104927;28;20179;-83
2024/01/30 11:13:31;;;;;;;0.75;0.75;;;8.40;99.90;;;;;;5105712;28;20248;-82
2024/01/30 11:16:06;;;;;;;0.30;0.30;;;8.40;99.90;;;;;;5103658;28;20203;-82
2024/01/30 11:18:33;;;;;;;0.40;0.40;;;8.40;99.90;;;;;;5105037;28;20309;-83
2024/01/30 11:21:01;;;;;;;2.25;2.15;;;8.50;99.90;;;;;;5103267;28;20274;-78
2024/01/30 11:23:28;;;;;;;0.30;0.20;;;8.50;99.90;;;;;;5099465;28;20430;-78
2024/01/30 11:25:54;;;;;;;0.30;0.30;;;8.50;99.90;;;;;;5112932;27;20516;-83
2024/01/30 11:28:24;;;;;;;0.30;0.30;;;8.60;99.90;;;;;;5106825;28;20235;-78
2024/01/30 11:30:51;;;;;;;0.40;0.30;;;8.70;99.90;;;;;;5122809;27;20594;-83
2024/01/30 11:33:32;;;;;;;1.85;1.75;;;8.70;99.90;;;;;;5103503;28;20414;-79
2024/01/30 11:36:01;;;;;;;0.68;0.68;;;8.60;99.90;;;;;;5093983;28;20197;-79
2024/01/30 11:38:27;;;;;;;0.30;0.25;;;8.60;99.90;;;;;;5101781;28;20211;-83
2024/01/30 11:40:57;;;;;;;0.40;0.30;;;8.70;99.90;;;;;;5105789;28;20222;-78
2024/01/30 11:43:24;;;;;;;0.30;0.30;;;8.60;99.90;;;;;;5133487;27;20260;-78
2024/01/30 11:45:50;;;;;;;0.30;0.30;;;8.60;99.90;;;;;;5097511;28;20278;-83
2024/01/30 11:48:16;;;;;;;0.30;0.30;;;8.60;99.90;;;;;;5099368;28;20250;-79
2024/01/30 11:50:44;;;;;;;0.30;0.20;;;8.60;99.90;;;;;;5100514;28;20199;-78
2024/01/30 11:53:11;;;;;;;0.30;0.20;;;8.60;99.90;;;;;;5101033;28;20478;-78
2024/01/30 11:55:37;;;;;;;0.30;0.20;;;8.70;99.90;;;;;;5094301;28;20541;-83
2024/01/30 11:58:04;;;;;;;3.13;2.45;;;8.80;99.90;;;;;;5104975;28;20203;-83
2024/01/30 12:00:31;;;;;;;68.70;7.00;;;8.80;99.90;;;;;;5121579;27;20227;-84
2024/01/30 12:02:57;;;;;;;0.30;0.20;;;8.90;99.90;;;;;;5097350;28;20790;-79
2024/01/30 12:05:23;;;;;;;0.30;0.30;;;8.80;99.90;;;;;;5096189;28;20188;-78
2024/01/30 12:07:49;;;;;;;0.30;0.20;;;8.80;99.90;;;;;;5088677;28;20468;-83
2024/01/30 12:10:15;;;;;;;4.80;4.43;;;8.80;99.90;;;;;;5095411;28;20719;-83
2024/01/30 12:12:55;;;;;;;0.30;0.20;;;8.80;99.90;;;;;;5096122;28;20228;-79
2024/01/30 12:15:22;;;;;;;0.40;0.40;;;8.80;99.90;;;;;;5089594;28;20184;-79
2024/01/30 12:17:48;;;;;;;0.75;0.75;;;8.80;99.90;;;;;;5103587;28;20587;-79
2024/01/30 12:20:17;;;;;;;0.30;0.20;;;8.90;99.90;;;;;;5101131;28;20211;-78
2024/01/30 12:22:44;;;;;;;0.30;0.20;;;9.00;99.90;;;;;;5105244;28;20191;-83
2024/01/30 12:25:12;;;;;;;12.20;11.27;;;8.90;99.90;;;;;;5102553;28;20183;-83
2024/01/30 12:27:38;;;;;;;0.43;0.43;;;8.90;99.90;;;;;;5097049;28;20240;-83
2024/01/30 12:30:08;;;;;;;0.30;0.20;;;8.90;99.90;;;;;;5099387;28;20184;-83
2024/01/30 12:32:44;;;;;;;1.95;1.85;;;8.90;99.90;;;;;;5127067;27;20720;-79
2024/01/30 12:35:11;;;;;;;0.55;0.55;;;9.00;99.90;;;;;;5103279;28;20176;-82
2024/01/30 12:37:37;;;;;;;0.50;0.50;;;9.10;99.90;;;;;;5098128;28;20198;-79
2024/01/30 12:40:04;;;;;;;0.63;0.60;;;9.20;99.90;;;;;;5099457;28;20203;-83
2024/01/30 12:42:30;;;;;;;0.30;0.30;;;9.20;99.90;;;;;;5102531;28;20187;-79
2024/01/30 12:44:58;;;;;;;0.30;0.20;;;9.10;99.90;;;;;;5103525;28;20187;-79
2024/01/30 12:47:25;;;;;;;0.47;0.45;;;9.10;99.90;;;;;;5099610;28;20172;-78
2024/01/30 12:49:54;;;;;;;0.30;0.20;;;9.10;99.90;;;;;;5101316;28;20224;-78